createdAt,value
2023-02-09T00:04:18.872Z,34.00
2023-02-09T00:14:23.591Z,30.47
2023-02-09T00:24:27.068Z,33.37
2023-02-09T00:34:31.696Z,31.40
2023-02-09T00:44:35.281Z,34.27
2023-02-09T00:54:39.859Z,36.03
2023-02-09T01:04:43.306Z,32.90
2023-02-09T01:14:47.968Z,34.17
2023-02-09T01:24:51.435Z,32.93
2023-02-09T01:34:56.054Z,35.10
2023-02-09T01:45:23.206Z,33.67
2023-02-09T01:55:30.803Z,36.47
2023-02-09T02:05:38.128Z,34.60
2023-02-09T02:15:49.609Z,34.10
2023-02-09T02:26:37.697Z,34.07
2023-02-09T02:36:56.462Z,31.40
2023-02-09T02:47:04.227Z,35.67
2023-02-09T02:57:12.713Z,35.40
2023-02-09T03:07:18.775Z,32.60
2023-02-09T03:17:32.704Z,34.57
2023-02-09T03:27:40.451Z,33.60
2023-02-09T03:37:45.325Z,35.20
2023-02-09T03:47:48.927Z,35.00
2023-02-09T03:57:53.616Z,34.87
2023-02-09T04:08:00.500Z,35.30
2023-02-09T04:18:05.179Z,35.67
2023-02-09T04:28:09.604Z,33.80
2023-02-09T04:38:14.238Z,32.07
2023-02-09T04:48:19.968Z,32.67
2023-02-09T04:58:41.622Z,32.30
2023-02-09T05:08:44.973Z,33.50
2023-02-09T05:18:50.365Z,32.37
2023-02-09T05:28:53.528Z,33.97
2023-02-09T05:38:58.045Z,32.47
2023-02-09T05:49:01.176Z,30.10
2023-02-09T05:59:05.778Z,29.93
2023-02-09T06:09:08.936Z,31.23
2023-02-09T06:19:14.744Z,30.10
2023-02-09T06:29:17.965Z,29.13
2023-02-09T06:39:22.567Z,29.50
2023-02-09T06:49:26.630Z,30.70
2023-02-09T06:59:31.409Z,28.53
2023-02-09T07:09:34.809Z,25.73
2023-02-09T07:19:39.427Z,27.47
2023-02-09T07:29:42.745Z,29.73
2023-02-09T07:39:47.362Z,33.47
2023-02-09T07:49:50.723Z,32.93
2023-02-09T07:59:55.312Z,34.23
2023-02-09T08:09:58.800Z,34.63
2023-02-09T08:20:07.589Z,33.77
2023-02-09T08:30:12.504Z,31.77
2023-02-09T08:40:17.294Z,31.63
2023-02-09T08:50:20.854Z,27.20
2023-02-09T09:00:25.548Z,26.97
2023-02-09T09:10:28.782Z,26.93
2023-02-09T09:20:33.335Z,26.00
2023-02-09T09:30:37.516Z,28.43
2023-02-09T09:40:45.625Z,28.60
2023-02-09T09:50:49.025Z,28.93
2023-02-09T10:00:54.553Z,30.03
2023-02-09T10:11:00.895Z,29.00
2023-02-09T10:21:08.214Z,29.23
2023-02-09T10:31:16.182Z,26.13
2023-02-09T10:41:22.600Z,26.00
2023-02-09T10:51:29.954Z,21.97
2023-02-09T11:01:42.040Z,25.77
2023-02-09T11:11:46.942Z,27.10
2023-02-09T11:22:02.279Z,25.97
2023-02-09T11:32:13.286Z,25.10
2023-02-09T11:42:40.188Z,28.60
2023-02-09T11:52:50.138Z,25.63
2023-02-09T12:03:00.244Z,24.30
2023-02-09T12:13:14.392Z,24.67
2023-02-09T12:23:21.974Z,21.57
2023-02-09T12:33:30.877Z,21.83
2023-02-09T12:43:36.870Z,24.07
2023-02-09T12:53:47.927Z,21.67
2023-02-09T13:03:58.634Z,20.60
2023-02-09T13:14:05.859Z,17.87
2023-02-09T13:24:14.049Z,22.57
2023-02-09T13:34:28.928Z,21.50
2023-02-09T13:44:35.384Z,25.00
2023-02-09T13:54:39.158Z,18.30
2023-02-09T14:04:44.078Z,21.03
2023-02-09T14:15:12.501Z,21.63
2023-02-09T14:25:25.096Z,21.47
2023-02-09T14:35:30.340Z,20.87
2023-02-09T14:45:40.278Z,20.50
2023-02-09T14:55:44.559Z,19.93
2023-02-09T15:05:50.869Z,20.67
2023-02-09T15:15:54.504Z,22.70
2023-02-09T15:26:00.232Z,23.93
2023-02-09T15:36:03.522Z,24.83
2023-02-09T15:46:28.537Z,26.77
2023-02-09T15:56:32.062Z,26.73
2023-02-09T16:06:36.697Z,29.50
2023-02-09T16:16:39.929Z,29.90
2023-02-09T16:26:44.585Z,29.00
2023-02-09T16:36:48.849Z,31.07
2023-02-09T16:46:55.407Z,31.70
2023-02-09T16:56:58.723Z,30.33
2023-02-09T17:07:03.293Z,31.93
2023-02-09T17:17:06.481Z,35.07
2023-02-09T17:27:11.207Z,33.63
2023-02-09T17:37:16.675Z,32.73
2023-02-09T17:47:23.402Z,32.83
2023-02-09T17:57:27.543Z,33.60
2023-02-09T18:07:32.119Z,31.60
2023-02-09T18:17:35.297Z,32.83
2023-02-09T18:27:39.811Z,33.60
2023-02-09T18:37:42.995Z,32.37
2023-02-09T18:47:47.973Z,38.00
2023-02-09T18:57:51.420Z,37.77
2023-02-09T19:07:57.112Z,36.03
2023-02-09T19:18:00.532Z,34.47
2023-02-09T19:28:05.255Z,33.83
2023-02-09T19:38:08.559Z,34.33
2023-02-09T19:48:13.705Z,36.80
2023-02-09T19:58:16.930Z,51.70
2023-02-09T20:08:22.717Z,30.27
2023-02-09T20:18:25.969Z,24.90
2023-02-09T20:28:30.676Z,26.27
2023-02-09T20:38:33.951Z,33.13
2023-02-09T20:48:38.530Z,28.67
2023-02-09T20:58:41.785Z,31.00
2023-02-09T21:08:46.382Z,27.23
2023-02-09T21:18:50.501Z,23.47
2023-02-09T21:28:57.881Z,23.17
2023-02-09T21:39:01.121Z,20.63
2023-02-09T21:49:05.989Z,23.07
2023-02-09T21:59:09.270Z,21.57
2023-02-09T22:09:14.230Z,24.07
2023-02-09T22:19:17.416Z,26.97
2023-02-09T22:29:22.001Z,23.33
2023-02-09T22:39:25.219Z,21.10
2023-02-09T22:49:29.780Z,21.03
2023-02-09T22:59:33.130Z,17.73
2023-02-09T23:09:37.883Z,20.13
2023-02-09T23:19:41.334Z,17.73
2023-02-09T23:29:45.978Z,17.33
2023-02-09T23:39:49.105Z,17.53
2023-02-09T23:49:54.111Z,20.13
2023-02-09T23:59:57.404Z,15.73
